Time;durP1;ratioP1;P1;durP2;ratioP2;P2;SDS_P1;SDS_P2;PMS_P1;PMS_P2;Temp;Humidity;BMP_temperature;BMP_pressure;BME280_temperature;BME280_humidity;BME280_pressure;Samples;Min_cycle;Max_cycle;Signal;HPM_P1;HPM_P2
2024/02/01 00:00:09;;;;;;;;;;;15.70;72.40;;;;;;3967582;29;19935;-48
2024/02/01 00:02:49;;;;;;;;;;;15.70;72.10;;;;;;3968119;29;19936;-49
2024/02/01 00:05:30;;;;;;;;;;;15.80;71.90;;;;;;3966905;29;20285;-47
2024/02/01 00:08:11;;;;;;;;;;;15.90;71.90;;;;;;3966384;29;19940;-46
2024/02/01 00:10:52;;;;;;;;;;;15.90;71.70;;;;;;3966739;29;20304;-45
2024/02/01 00:13:32;;;;;;;;;;;16.00;71.50;;;;;;3971860;29;20081;-44
2024/02/01 00:16:21;;;;;;;;;;;16.00;71.40;;;;;;3982437;29;20009;-44
2024/02/01 00:19:02;;;;;;;;;;;16.00;71.30;;;;;;3973774;29;19936;-45
2024/02/01 00:21:43;;;;;;;;;;;16.00;71.40;;;;;;3967402;29;20599;-45
2024/02/01 00:24:24;;;;;;;;;;;16.00;71.50;;;;;;3968095;29;19931;-46
2024/02/01 00:27:04;;;;;;;;;;;16.00;71.60;;;;;;3966815;29;19994;-45
2024/02/01 00:29:45;;;;;;;;;;;16.00;71.50;;;;;;3967256;29;19935;-46
2024/02/01 00:32:27;;;;;;;;;;;16.10;71.20;;;;;;3953040;29;19932;-47
2024/02/01 00:35:08;;;;;;;;;;;16.10;71.10;;;;;;3952367;29;20576;-49
2024/02/01 00:37:48;;;;;;;;;;;16.20;71.10;;;;;;3952767;29;19933;-47
2024/02/01 00:40:29;;;;;;;;;;;16.20;71.00;;;;;;3952021;29;19936;-45
2024/02/01 00:43:10;;;;;;;;;;;16.10;71.00;;;;;;3952735;29;20005;-44
2024/02/01 00:45:50;;;;;;;;;;;16.10;71.20;;;;;;3955594;29;20062;-43
2024/02/01 00:48:32;;;;;;;;;;;16.10;71.20;;;;;;3967581;29;19936;-45
2024/02/01 00:51:14;;;;;;;;;;;16.10;71.20;;;;;;3967649;29;19952;-44
2024/02/01 00:53:54;;;;;;;;;;;16.10;71.20;;;;;;3967589;29;19963;-48
2024/02/01 00:56:35;;;;;;;;;;;16.10;71.20;;;;;;3967443;29;20332;-46
2024/02/01 00:59:15;;;;;;;;;;;16.10;71.30;;;;;;3967724;29;19932;-45
2024/02/01 01:01:56;;;;;;;;;;;16.20;71.40;;;;;;3967366;29;19984;-46
2024/02/01 01:04:38;;;;;;;;;;;16.20;71.20;;;;;;3968132;29;20395;-45
2024/02/01 01:07:19;;;;;;;;;;;16.30;71.10;;;;;;3956099;29;19951;-44
2024/02/01 01:10:00;;;;;;;;;;;16.30;70.90;;;;;;3967537;29;20036;-48
2024/02/01 01:12:40;;;;;;;;;;;16.30;70.80;;;;;;3967471;29;19960;-43
2024/02/01 01:15:21;;;;;;;;;;;16.40;70.60;;;;;;3966965;29;19936;-45
2024/02/01 01:18:01;;;;;;;;;;;16.40;70.40;;;;;;3966214;29;19932;-43
2024/02/01 01:20:44;;;;;;;;;;;16.40;70.30;;;;;;3967995;29;19939;-43
2024/02/01 01:23:25;;;;;;;;;;;16.40;70.20;;;;;;3967097;29;20803;-45
2024/02/01 01:26:05;;;;;;;;;;;16.40;70.30;;;;;;3967115;29;19933;-44
2024/02/01 01:28:46;;;;;;;;;;;16.40;71.30;;;;;;3967109;29;20478;-44
2024/02/01 01:31:27;;;;;;;;;;;16.30;70.50;;;;;;3967586;29;19977;-43
2024/02/01 01:34:07;;;;;;;;;;;16.30;70.80;;;;;;3967756;29;19932;-45
2024/02/01 01:36:50;;;;;;;;;;;16.20;71.00;;;;;;3959487;29;19936;-43
2024/02/01 01:39:30;;;;;;;;;;;16.20;71.30;;;;;;3967131;29;20293;-44
2024/02/01 01:42:11;;;;;;;;;;;16.10;71.50;;;;;;3967028;29;20083;-43
2024/02/01 01:44:51;;;;;;;;;;;16.20;72.20;;;;;;3953327;29;20481;-45
2024/02/01 01:47:32;;;;;;;;;;;16.30;71.20;;;;;;3966915;29;19981;-45
2024/02/01 01:50:13;;;;;;;;;;;16.30;71.10;;;;;;3966680;29;19961;-44
2024/02/01 01:52:57;;;;;;;;;;;16.40;71.00;;;;;;3968309;29;20061;-45
2024/02/01 01:55:38;;;;;;;;;;;16.40;70.90;;;;;;3966719;29;19936;-44
2024/02/01 01:58:19;;;;;;;;;;;16.40;70.70;;;;;;3966467;29;19932;-47
2024/02/01 02:01:00;;;;;;;;;;;16.40;70.70;;;;;;3967099;29;19981;-44
2024/02/01 02:03:42;;;;;;;;;;;16.30;71.60;;;;;;3966067;29;20277;-44
2024/02/01 02:06:23;;;;;;;;;;;16.30;70.70;;;;;;3967360;29;20023;-44
2024/02/01 02:09:12;;;;;;;;;;;16.30;70.90;;;;;;3965870;29;19947;-44
2024/02/01 02:11:52;;;;;;;;;;;16.30;71.10;;;;;;3979246;29;19959;-45
2024/02/01 02:14:33;;;;;;;;;;;16.30;71.30;;;;;;3979652;29;19931;-43
2024/02/01 02:17:14;;;;;;;;;;;16.30;71.30;;;;;;3966882;29;19939;-46
2024/02/01 02:19:55;;;;;;;;;;;16.40;71.20;;;;;;3966419;29;19936;-43
2024/02/01 02:22:37;;;;;;;;;;;16.40;71.00;;;;;;3965828;29;20324;-47
2024/02/01 02:25:18;;;;;;;;;;;16.40;71.00;;;;;;3966175;29;19936;-52
2024/02/01 02:27:58;;;;;;;;;;;16.40;71.00;;;;;;3975300;29;19932;-51
2024/02/01 02:30:40;;;;;;;;;;;16.50;70.80;;;;;;3984264;29;19947;-48
2024/02/01 02:33:21;;;;;;;;;;;16.50;70.70;;;;;;3984503;29;19932;-50
2024/02/01 02:36:03;;;;;;;;;;;16.50;70.50;;;;;;3972133;29;19932;-48
2024/02/01 02:38:45;;;;;;;;;;;16.50;70.50;;;;;;3969727;29;19932;-50
2024/02/01 02:41:25;;;;;;;;;;;16.50;70.60;;;;;;3958311;29;19931;-48
2024/02/01 02:44:10;;;;;;;;;;;16.40;70.70;;;;;;3969551;29;19936;-51
2024/02/01 02:46:51;;;;;;;;;;;16.40;70.90;;;;;;3969344;29;20427;-48
2024/02/01 02:49:33;;;;;;;;;;;16.40;71.00;;;;;;3957226;29;19935;-48
2024/02/01 02:52:14;;;;;;;;;;;16.40;70.90;;;;;;3967784;29;20005;-47
2024/02/01 02:54:57;;;;;;;;;;;16.50;70.90;;;;;;3968854;29;19936;-52
2024/02/01 02:57:39;;;;;;;;;;;16.50;70.90;;;;;;3968803;29;20024;-48
2024/02/01 03:00:20;;;;;;;;;;;16.50;70.90;;;;;;3968757;29;20285;-49
2024/02/01 03:03:01;;;;;;;;;;;16.50;71.70;;;;;;3975412;29;19947;-49
2024/02/01 03:05:42;;;;;;;;;;;16.50;70.70;;;;;;3975476;29;20046;-52
2024/02/01 03:08:22;;;;;;;;;;;16.50;70.80;;;;;;3968935;29;19936;-47
2024/02/01 03:11:10;;;;;;;;;;;16.50;71.00;;;;;;3968805;29;19932;-47
2024/02/01 03:13:51;;;;;;;;;;;16.40;71.10;;;;;;3967556;29;19936;-48
2024/02/01 03:16:31;;;;;;;;;;;16.40;71.00;;;;;;3968340;29;19981;-49
2024/02/01 03:19:12;;;;;;;;;;;16.40;70.90;;;;;;3968010;29;20399;-47
2024/02/01 03:21:55;;;;;;;;;;;16.50;70.90;;;;;;3967474;29;19932;-46
2024/02/01 03:24:36;;;;;;;;;;;16.50;70.80;;;;;;3968065;29;19951;-47
2024/02/01 03:27:18;;;;;;;;;;;16.60;70.70;;;;;;3952905;29;19952;-47
2024/02/01 03:30:00;;;;;;;;;;;16.60;70.60;;;;;;3953231;29;20646;-48
2024/02/01 03:32:42;;;;;;;;;;;16.50;70.50;;;;;;3981619;29;19931;-48
2024/02/01 03:35:23;;;;;;;;;;;16.50;70.60;;;;;;3975820;29;19992;-49
2024/02/01 03:38:04;;;;;;;;;;;16.50;70.80;;;;;;3966399;29;20369;-51
2024/02/01 03:40:45;;;;;;;;;;;16.40;71.80;;;;;;3966904;29;19935;-49
2024/02/01 03:43:28;;;;;;;;;;;16.30;71.10;;;;;;3968742;29;19932;-51
2024/02/01 03:46:08;;;;;;;;;;;16.30;71.30;;;;;;3955380;29;19985;-48
2024/02/01 03:48:49;;;;;;;;;;;16.20;71.50;;;;;;3979456;29;19936;-49
2024/02/01 03:51:34;;;;;;;;;;;16.10;71.80;;;;;;3983174;29;19936;-48
2024/02/01 03:54:15;;;;;;;;;;;16.00;72.10;;;;;;3980938;29;19932;-49
2024/02/01 03:56:57;;;;;;;;;;;16.00;73.50;;;;;;3966917;29;20037;-51
2024/02/01 03:59:41;;;;;;;;;;;16.00;72.80;;;;;;3956686;29;19932;-50
2024/02/01 04:02:23;;;;;;;;;;;16.10;72.70;;;;;;3964221;29;19935;-48
2024/02/01 04:05:04;;;;;;;;;;;16.20;72.30;;;;;;3967190;29;20301;-47
2024/02/01 04:07:45;;;;;;;;;;;16.20;72.00;;;;;;3967385;29;19936;-50
2024/02/01 04:10:25;;;;;;;;;;;16.30;72.60;;;;;;3967963;29;20441;-50
2024/02/01 04:13:07;;;;;;;;;;;16.30;71.30;;;;;;3967099;29;19936;-49
2024/02/01 04:15:49;;;;;;;;;;;16.40;71.30;;;;;;3967466;29;20078;-49
2024/02/01 04:18:30;;;;;;;;;;;16.50;71.30;;;;;;3966012;29;19975;-49
2024/02/01 04:21:11;;;;;;;;;;;16.50;71.00;;;;;;3967357;29;19964;-50
2024/02/01 04:23:52;;;;;;;;;;;16.50;70.70;;;;;;3951394;29;20116;-47
2024/02/01 04:26:34;;;;;;;;;;;16.60;70.70;;;;;;3966054;29;19952;-48
2024/02/01 04:29:17;;;;;;;;;;;16.60;70.70;;;;;;3965090;29;19993;-48
2024/02/01 04:31:59;;;;;;;;;;;16.60;70.60;;;;;;3965040;29;19951;-47
2024/02/01 04:34:41;;;;;;;;;;;16.60;70.60;;;;;;3952623;29;19936;-48
2024/02/01 04:37:22;;;;;;;;;;;16.60;70.60;;;;;;3965037;29;19932;-49
2024/02/01 04:40:03;;;;;;;;;;;16.60;70.50;;;;;;3979344;29;19936;-49
2024/02/01 04:42:51;;;;;;;;;;;16.50;71.40;;;;;;3980242;29;19932;-48
2024/02/01 04:45:31;;;;;;;;;;;16.50;70.60;;;;;;3972521;29;19932;-50
2024/02/01 04:48:14;;;;;;;;;;;16.60;70.60;;;;;;3964751;29;20393;-48
2024/02/01 04:50:55;;;;;;;;;;;16.60;70.40;;;;;;3966287;29;19936;-49
2024/02/01 04:53:36;;;;;;;;;;;16.60;70.30;;;;;;3962231;29;19932;-50
2024/02/01 04:56:16;;;;;;;;;;;16.60;70.20;;;;;;3968140;29;19941;-49
2024/02/01 04:58:57;;;;;;;;;;;16.60;70.20;;;;;;3966377;29;19961;-48
2024/02/01 05:01:38;;;;;;;;;;;16.70;70.20;;;;;;3967047;29;20623;-51
2024/02/01 05:04:21;;;;;;;;;;;16.60;70.10;;;;;;3967200;29;19953;-48
2024/02/01 05:07:05;;;;;;;;;;;16.60;70.00;;;;;;3965354;29;19932;-49
2024/02/01 05:09:46;;;;;;;;;;;16.60;69.80;;;;;;3966304;29;19948;-48
2024/02/01 05:12:28;;;;;;;;;;;16.70;69.80;;;;;;3972541;29;19977;-47
2024/02/01 05:15:09;;;;;;;;;;;16.80;69.80;;;;;;3971556;29;19931;-49
2024/02/01 05:17:50;;;;;;;;;;;16.70;69.70;;;;;;3964279;29;19982;-44
2024/02/01 05:20:33;;;;;;;;;;;16.70;70.60;;;;;;3963979;29;19933;-44
2024/02/01 05:23:13;;;;;;;;;;;16.70;69.70;;;;;;3964315;29;19969;-43
2024/02/01 05:25:54;;;;;;;;;;;16.70;69.80;;;;;;3966150;29;19932;-44
2024/02/01 05:28:35;;;;;;;;;;;16.60;70.00;;;;;;3966986;29;19936;-47
2024/02/01 05:31:16;;;;;;;;;;;16.60;70.10;;;;;;3966698;29;20024;-47
2024/02/01 05:33:56;;;;;;;;;;;16.70;70.10;;;;;;3963725;29;20392;-47
2024/02/01 05:36:39;;;;;;;;;;;16.70;69.90;;;;;;3965228;29;19977;-48
2024/02/01 05:39:29;;;;;;;;;;;16.70;69.70;;;;;;3962062;29;19990;-47
2024/02/01 05:42:13;;;;;;;;;;;16.80;69.70;;;;;;3964672;29;20013;-51
2024/02/01 05:44:54;;;;;;;;;;;16.80;69.70;;;;;;3965807;29;20404;-51
2024/02/01 05:47:35;;;;;;;;;;;16.80;69.80;;;;;;3963154;29;19932;-47
2024/02/01 05:50:17;;;;;;;;;;;16.70;69.90;;;;;;3954247;29;20039;-46
2024/02/01 05:52:59;;;;;;;;;;;16.60;70.00;;;;;;3964032;29;19936;-47
2024/02/01 05:55:40;;;;;;;;;;;16.50;71.10;;;;;;3967828;29;20454;-47
2024/02/01 05:58:20;;;;;;;;;;;16.50;70.60;;;;;;3964869;29;19961;-46
2024/02/01 06:01:02;;;;;;;;;;;16.50;70.70;;;;;;3964780;29;19936;-47
2024/02/01 06:03:44;;;;;;;;;;;16.50;70.60;;;;;;3966930;29;19932;-49
2024/02/01 06:06:24;;;;;;;;;;;16.60;70.60;;;;;;3971394;29;20453;-47
2024/02/01 06:09:10;;;;;;;;;;;16.60;70.40;;;;;;3971221;29;19935;-47
2024/02/01 06:11:51;;;;;;;;;;;16.60;71.20;;;;;;3967283;29;19987;-46
2024/02/01 06:14:32;;;;;;;;;;;16.60;70.30;;;;;;3968038;29;19936;-46
2024/02/01 06:17:13;;;;;;;;;;;16.50;70.30;;;;;;3970425;29;19940;-46
2024/02/01 06:19:55;;;;;;;;;;;16.50;70.50;;;;;;3971490;29;19981;-49
2024/02/01 06:22:37;;;;;;;;;;;16.50;70.80;;;;;;3970961;29;19936;-46
2024/02/01 06:25:19;;;;;;;;;;;16.50;70.70;;;;;;3975261;29;20391;-48
2024/02/01 06:28:00;;;;;;;;;;;16.60;70.50;;;;;;3959813;29;20078;-48
2024/02/01 06:30:41;;;;;;;;;;;16.60;70.30;;;;;;3971323;29;19936;-47
2024/02/01 06:33:28;;;;;;;;;;;16.70;70.20;;;;;;3971525;29;19967;-48
2024/02/01 06:36:13;;;;;;;;;;;16.70;70.00;;;;;;3960007;29;19936;-47
2024/02/01 06:39:13;;;;;;;;;;;16.80;69.80;;;;;;3971445;29;20078;-46
2024/02/01 06:42:04;;;;;;;;;;;16.80;69.70;;;;;;3980656;29;20148;-47
2024/02/01 06:44:47;;;;;;;;;;;16.70;69.80;;;;;;3980541;29;19932;-49
2024/02/01 06:47:36;;;;;;;;;;;16.70;69.80;;;;;;3969440;29;19959;-47
2024/02/01 06:50:34;;;;;;;;;;;16.80;69.80;;;;;;3970805;29;20005;-46
2024/02/01 06:53:20;;;;;;;;;;;16.80;69.60;;;;;;3970776;29;19967;-48
2024/02/01 06:56:06;;;;;;;;;;;16.80;70.00;;;;;;3984386;29;19972;-48
2024/02/01 06:58:56;;;;;;;;;;;16.80;71.00;;;;;;3986749;29;19936;-48
2024/02/01 07:01:51;;;;;;;;;;;16.70;70.10;;;;;;3973393;29;19953;-47
2024/02/01 07:04:41;;;;;;;;;;;16.70;70.80;;;;;;3968786;29;19936;-46
2024/02/01 07:07:26;;;;;;;;;;;16.60;70.50;;;;;;3967754;29;19949;-48
2024/02/01 07:10:16;;;;;;;;;;;16.60;70.40;;;;;;3969955;29;20417;-46
2024/02/01 07:13:07;;;;;;;;;;;16.60;70.30;;;;;;3969340;29;19936;-48
2024/02/01 07:15:48;;;;;;;;;;;16.60;70.20;;;;;;3970996;29;19981;-47
2024/02/01 07:18:30;;;;;;;;;;;16.60;70.30;;;;;;3972913;29;19979;-47
2024/02/01 07:21:29;;;;;;;;;;;16.50;70.60;;;;;;3956807;29;20066;-49
2024/02/01 07:24:27;;;;;;;;;;;16.60;70.80;;;;;;3967611;29;20439;-47
2024/02/01 08:00:09;;;;;;;;;;;16.20;66.30;;;;;;3966018;29;19932;-48
2024/02/01 08:03:00;;;;;;;;;;;16.30;66.30;;;;;;3957014;29;19936;-51
2024/02/01 08:08:51;;;;;;;;;;;16.40;65.90;;;;;;3948843;29;19936;-47
2024/02/01 08:11:32;;;;;;;;;;;16.30;65.00;;;;;;3975686;29;20392;-48
2024/02/01 08:14:13;;;;;;;;;;;16.40;65.10;;;;;;3982613;29;19951;-47
2024/02/01 08:16:54;;;;;;;;;;;16.40;65.00;;;;;;3972859;29;19940;-47
2024/02/01 08:19:35;;;;;;;;;;;16.40;64.80;;;;;;3967581;29;20151;-47
2024/02/01 08:22:21;;;;;;;;;;;16.40;64.70;;;;;;3967453;29;19943;-48
2024/02/01 08:25:02;;;;;;;;;;;16.40;64.40;;;;;;3961980;29;19936;-47
2024/02/01 08:27:52;;;;;;;;;;;16.40;64.20;;;;;;3948678;29;19935;-47
2024/02/01 08:30:34;;;;;;;;;;;16.40;63.40;;;;;;3980795;29;19955;-47
2024/02/01 08:33:19;;;;;;;;;;;16.50;62.90;;;;;;3969178;29;19936;-47
2024/02/01 08:36:00;;;;;;;;;;;16.50;62.80;;;;;;3943730;29;19943;-48
2024/02/01 08:38:44;;;;;;;;;;;16.50;62.90;;;;;;3966568;29;19936;-48
2024/02/01 08:41:25;;;;;;;;;;;16.50;63.00;;;;;;3966659;29;20081;-51
2024/02/01 08:44:07;;;;;;;;;;;16.40;63.10;;;;;;3974147;29;19973;-49
2024/02/01 08:46:50;;;;;;;;;;;16.40;63.60;;;;;;3951614;29;19932;-50
2024/02/01 08:49:38;;;;;;;;;;;16.30;64.00;;;;;;3953502;29;19936;-48
2024/02/01 08:52:19;;;;;;;;;;;16.30;63.70;;;;;;3966979;29;19932;-50
2024/02/01 08:55:01;;;;;;;;;;;16.30;63.60;;;;;;3966579;29;19987;-48
2024/02/01 08:57:43;;;;;;;;;;;16.30;63.80;;;;;;3966846;29;20070;-48
2024/02/01 09:00:31;;;;;;;;;;;16.30;63.70;;;;;;3951529;29;19938;-51
2024/02/01 09:03:16;;;;;;;;;;;16.40;63.80;;;;;;3964246;29;20068;-49
2024/02/01 09:06:08;;;;;;;;;;;16.40;63.50;;;;;;3967101;29;19935;-49
2024/02/01 09:08:50;;;;;;;;;;;16.40;63.10;;;;;;3966341;29;19932;-52
2024/02/01 09:11:33;;;;;;;;;;;16.40;63.70;;;;;;3967182;29;19932;-51
2024/02/01 09:14:14;;;;;;;;;;;16.40;63.00;;;;;;3967572;29;19951;-48
2024/02/01 09:16:56;;;;;;;;;;;16.50;63.10;;;;;;3966661;29;19936;-49
2024/02/01 09:19:37;;;;;;;;;;;16.40;63.00;;;;;;3966550;29;19950;-50
2024/02/01 09:22:17;;;;;;;;;;;16.40;62.70;;;;;;3966159;29;20289;-51
2024/02/01 09:24:58;;;;;;;;;;;16.40;62.50;;;;;;3966215;29;20246;-51
2024/02/01 09:27:44;;;;;;;;;;;16.40;62.50;;;;;;3965044;29;19936;-45
2024/02/01 09:30:26;;;;;;;;;;;16.40;62.40;;;;;;3965598;29;20392;-50
2024/02/01 09:33:07;;;;;;;;;;;16.30;63.20;;;;;;3965827;29;20297;-50
2024/02/01 09:35:49;;;;;;;;;;;16.40;62.30;;;;;;3966497;29;19962;-53
2024/02/01 09:38:29;;;;;;;;;;;16.40;61.90;;;;;;3965899;29;19935;-51
2024/02/01 09:41:16;;;;;;;;;;;16.30;62.80;;;;;;3965980;29;19936;-55
2024/02/01 09:44:00;;;;;;;;;;;16.40;63.30;;;;;;3963743;29;19932;-46
2024/02/01 09:46:41;;;;;;;;;;;16.50;63.70;;;;;;3965522;29;19954;-55
2024/02/01 09:49:23;;;;;;;;;;;16.50;62.80;;;;;;3965013;29;20495;-55
2024/02/01 09:52:09;;;;;;;;;;;16.50;62.40;;;;;;3954512;29;19952;-59
2024/02/01 09:54:50;;;;;;;;;;;16.40;62.90;;;;;;3954712;29;20293;-51
2024/02/01 09:57:32;;;;;;;;;;;16.60;63.90;;;;;;3966240;29;19935;-50
2024/02/01 10:00:22;;;;;;;;;;;16.60;62.40;;;;;;3951946;29;19941;-50
2024/02/01 10:03:03;;;;;;;;;;;16.50;61.90;;;;;;3950276;29;20297;-53
2024/02/01 10:05:44;;;;;;;;;;;16.40;62.10;;;;;;3950391;29;19952;-53
2024/02/01 10:08:25;;;;;;;;;;;16.20;62.50;;;;;;3951538;29;19953;-51
2024/02/01 10:11:06;;;;;;;;;;;16.20;64.00;;;;;;3957542;29;19952;-51
2024/02/01 10:13:48;;;;;;;;;;;16.00;63.40;;;;;;3954561;29;19936;-47
2024/02/01 10:16:35;;;;;;;;;;;15.90;63.60;;;;;;3954615;29;19932;-45
2024/02/01 10:19:17;;;;;;;;;;;15.90;63.90;;;;;;3966203;29;19932;-46
2024/02/01 10:22:05;;;;;;;;;;;15.80;64.20;;;;;;3966004;29;19936;-47
2024/02/01 10:48:30;;;;;;;17.98;3.60;;;15.70;84.70;;;;;;4229709;27;20404;-55
2024/02/01 10:51:13;;;;;;;20.98;4.72;;;15.80;63.60;;;;;;4231479;27;20129;-52
2024/02/01 10:53:56;;;;;;;23.42;4.45;;;15.80;64.20;;;;;;4218323;28;20114;-51
2024/02/01 10:56:37;;;;;;;12.93;3.55;;;15.70;64.40;;;;;;4218040;28;20408;-55
2024/02/01 10:59:19;;;;;;;16.45;3.35;;;15.70;65.30;;;;;;4218249;28;20055;-48
2024/02/01 11:02:00;;;;;;;;;;;15.70;65.50;;;;;;4218775;28;20075;-47
2024/02/01 11:04:47;;;;;;;17.00;2.85;;;15.60;65.90;;;;;;4231576;27;20320;-46
2024/02/01 11:07:28;;;;;;;24.13;4.15;;;15.60;66.50;;;;;;4233907;27;20054;-50
2024/02/01 11:10:13;;;;;;;;;;;15.60;66.80;;;;;;4233409;27;20096;-49
2024/02/01 11:12:55;;;;;;;21.05;3.67;;;15.50;67.70;;;;;;4233274;27;20015;-50
2024/02/01 11:15:36;;;;;;;22.13;4.53;;;15.50;68.00;;;;;;4234018;27;20045;-51
2024/02/01 11:18:19;;;;;;;26.17;4.43;;;15.50;68.90;;;;;;4234962;27;20099;-52
2024/02/01 11:21:04;;;;;;;27.85;3.72;;;15.40;69.40;;;;;;4234677;27;20046;-49
2024/02/01 11:23:45;;;;;;;27.23;4.00;;;15.40;70.10;;;;;;4234408;27;20116;-49
2024/02/01 11:26:28;;;;;;;24.77;4.68;;;15.30;70.70;;;;;;4234760;27;20506;-51
2024/02/01 11:29:11;;;;;;;19.13;3.40;;;15.30;70.70;;;;;;4233981;27;20538;-48
2024/02/01 11:31:56;;;;;;;22.27;4.25;;;15.30;71.30;;;;;;4233466;27;20050;-52
2024/02/01 11:34:38;;;;;;;18.00;3.50;;;15.20;71.30;;;;;;4233700;27;20176;-47
2024/02/01 11:37:21;;;;;;;18.08;2.97;;;15.20;71.70;;;;;;4234074;27;20095;-51
2024/02/01 11:40:15;;;;;;;23.80;3.58;;;15.10;72.10;;;;;;4230065;27;20133;-47
2024/02/01 11:42:58;;;;;;;20.77;4.00;;;15.10;72.40;;;;;;4222504;27;20207;-47
2024/02/01 11:45:39;;;;;;;22.77;4.32;;;15.10;72.60;;;;;;4232845;27;20404;-45
2024/02/01 11:48:22;;;;;;;24.67;4.13;;;15.10;72.70;;;;;;4228979;27;20192;-46
2024/02/01 11:51:04;;;;;;;16.25;2.95;;;15.10;72.90;;;;;;4221801;27;20569;-46
2024/02/01 11:53:51;;;;;;;22.92;4.32;;;15.00;73.10;;;;;;4222803;27;20375;-49
2024/02/01 11:56:33;;;;;;;22.80;3.97;;;15.00;73.40;;;;;;4204593;28;20059;-50
2024/02/01 11:59:14;;;;;;;10.55;2.70;;;15.00;74.10;;;;;;4222070;27;20054;-52
2024/02/01 12:01:55;;;;;;;25.00;4.50;;;15.10;75.00;;;;;;4219665;27;20062;-54
2024/02/01 12:24:17;;;;;;;19.83;4.10;;;15.00;73.90;;;;;;4157896;28;20936;-52
2024/02/01 12:26:59;;;;;;;22.83;6.13;;;15.40;67.60;;;;;;4165511;28;20160;-53
2024/02/01 12:29:41;;;;;;;22.13;3.28;;;15.40;70.40;;;;;;4166406;28;20528;-47
2024/02/01 12:32:24;;;;;;;15.65;3.58;;;15.30;71.80;;;;;;4175919;28;20051;-48
2024/02/01 12:35:08;;;;;;;22.42;3.53;;;15.30;72.00;;;;;;4166287;28;20063;-46
2024/02/01 12:37:50;;;;;;;20.40;2.90;;;15.20;72.90;;;;;;4159449;28;20202;-50
2024/02/01 12:40:32;;;;;;;21.13;4.25;;;15.20;74.40;;;;;;4167738;28;20060;-52
2024/02/01 12:43:13;;;;;;;16.67;3.10;;;15.20;75.00;;;;;;4167339;28;20611;-48
2024/02/01 12:45:55;;;;;;;23.02;3.78;;;15.20;75.80;;;;;;4167644;28;20520;-52
2024/02/01 12:48:37;;;;;;;22.27;4.68;;;15.20;75.60;;;;;;4166771;28;20157;-48
2024/02/01 12:51:22;;;;;;;21.33;3.75;;;15.30;77.60;;;;;;4167129;28;20052;-44
2024/02/01 12:54:04;;;;;;;18.08;3.20;;;15.30;75.80;;;;;;4166004;28;20052;-46
2024/02/01 12:56:46;;;;;;;23.25;3.65;;;15.30;75.00;;;;;;4166254;28;20550;-46
2024/02/01 12:59:27;;;;;;;16.52;3.42;;;15.30;74.80;;;;;;4167461;28;20064;-40
2024/02/01 13:02:09;;;;;;;22.15;3.50;;;15.30;75.30;;;;;;4161626;28;20057;-40
2024/02/01 13:04:51;;;;;;;22.30;3.95;;;15.30;75.10;;;;;;4162195;28;20051;-40
2024/02/01 13:07:32;;;;;;;21.73;3.97;;;15.20;74.30;;;;;;4162461;28;20052;-39
2024/02/01 13:10:15;;;;;;;15.93;2.80;;;15.20;73.90;;;;;;4166448;28;20880;-40
2024/02/01 13:13:00;;;;;;;17.15;3.00;;;15.20;74.30;;;;;;4158197;28;20048;-40
2024/02/01 13:15:46;;;;;;;20.85;3.38;;;15.10;74.30;;;;;;4165325;28;20147;-39
2024/02/01 13:18:27;;;;;;;18.02;3.20;;;15.00;74.60;;;;;;4165999;28;20064;-40
2024/02/01 13:21:08;;;;;;;17.95;3.58;;;15.00;74.80;;;;;;4180725;28;20409;-40
2024/02/01 13:23:49;;;;;;;13.50;3.80;;;15.00;74.80;;;;;;4160133;28;20090;-40
2024/02/01 13:26:35;;;;;;;17.73;3.05;;;14.90;74.80;;;;;;4155801;28;20299;-40
2024/02/01 13:29:17;;;;;;;17.65;3.45;;;14.90;74.60;;;;;;4152267;28;20409;-40
2024/02/01 13:31:59;;;;;;;17.42;3.95;;;14.90;74.70;;;;;;4156063;28;20056;-39
2024/02/01 13:34:40;;;;;;;20.38;3.78;;;14.90;75.10;;;;;;4141315;28;20072;-39
2024/02/01 13:37:22;;;;;;;17.55;3.97;;;14.80;75.40;;;;;;4156235;28;20140;-39
2024/02/01 13:40:05;;;;;;;14.57;4.40;;;14.80;75.40;;;;;;4156933;28;20086;-39
2024/02/01 13:42:46;;;;;;;26.33;4.07;;;14.80;75.40;;;;;;4156439;28;20139;-39
2024/02/01 13:45:29;;;;;;;23.52;4.72;;;14.80;75.30;;;;;;4153557;28;20072;-39
2024/02/01 13:48:11;;;;;;;20.38;3.90;;;14.80;75.30;;;;;;4133613;28;20099;-45
2024/02/01 13:50:54;;;;;;;23.40;3.75;;;14.80;75.50;;;;;;4154637;28;20051;-45
2024/02/01 13:53:36;;;;;;;17.38;3.42;;;14.80;75.60;;;;;;4149125;28;20056;-46
2024/02/01 13:56:17;;;;;;;22.23;3.67;;;14.70;75.70;;;;;;4153055;28;20049;-45
2024/02/01 13:59:00;;;;;;;16.98;3.95;;;14.70;75.60;;;;;;4139185;28;20099;-45
2024/02/01 14:01:42;;;;;;;19.42;4.00;;;14.70;75.20;;;;;;4142645;28;20108;-47
2024/02/01 14:04:23;;;;;;;16.05;2.95;;;14.70;74.90;;;;;;4146157;28;20057;-46
2024/02/01 14:07:04;;;;;;;20.55;3.60;;;14.70;75.00;;;;;;4148602;28;20402;-45
2024/02/01 14:09:46;;;;;;;21.48;3.78;;;14.70;75.40;;;;;;4154858;28;20044;-44
2024/02/01 14:12:27;;;;;;;21.55;3.38;;;14.70;75.80;;;;;;4159684;28;20048;-45
2024/02/01 14:15:09;;;;;;;23.02;3.47;;;14.70;76.00;;;;;;4156212;28;20180;-45
2024/02/01 14:17:52;;;;;;;20.23;3.65;;;14.70;75.70;;;;;;4155239;28;20052;-45
2024/02/01 14:20:33;;;;;;;24.15;4.25;;;14.70;75.20;;;;;;4154223;28;20071;-45
2024/02/01 14:23:17;;;;;;;14.43;3.17;;;14.70;75.00;;;;;;4154144;28;20488;-45
2024/02/01 14:25:58;;;;;;;19.23;3.10;;;14.70;75.10;;;;;;4149749;28;20142;-39
2024/02/01 14:28:39;;;;;;;;;;;14.70;75.60;;;;;;4153461;28;20071;-39
2024/02/01 14:31:20;;;;;;;18.25;2.72;;;14.70;75.60;;;;;;4147440;28;19932;-39
2024/02/01 14:34:02;;;;;;;17.33;2.97;;;14.70;76.20;;;;;;4153691;28;20144;-40
2024/02/01 14:36:43;;;;;;;19.13;3.10;;;14.70;76.30;;;;;;4153253;28;20459;-40
2024/02/01 14:39:26;;;;;;;18.63;2.83;;;14.70;76.50;;;;;;4137627;28;20566;-46
2024/02/01 14:42:07;;;;;;;15.20;2.72;;;14.70;76.50;;;;;;4142743;28;20413;-44
2024/02/01 14:44:48;;;;;;;17.40;4.15;;;14.70;76.50;;;;;;4149764;28;20180;-45
2024/02/01 14:47:30;;;;;;;14.10;4.05;;;14.70;76.60;;;;;;4148487;28;20378;-47
2024/02/01 14:50:14;;;;;;;;;;;14.70;76.80;;;;;;4155687;28;20160;-46
2024/02/01 14:52:55;;;;;;;16.60;3.42;;;14.80;77.20;;;;;;4156341;28;19928;-46
2024/02/01 14:55:36;;;;;;;21.65;4.03;;;14.90;78.60;;;;;;4153577;28;20060;-44
2024/02/01 14:58:18;;;;;;;15.00;3.05;;;15.00;79.00;;;;;;4131815;28;20080;-47
2024/02/01 15:00:59;;;;;;;13.60;3.13;;;15.10;78.70;;;;;;4141638;28;20052;-45
2024/02/01 15:03:40;;;;;;;16.50;3.05;;;15.20;77.70;;;;;;4154836;28;20056;-45
2024/02/01 15:06:23;;;;;;;12.57;4.38;;;15.10;77.00;;;;;;4154592;28;20060;-47
2024/02/01 15:09:05;;;;;;;21.58;4.32;;;15.10;76.60;;;;;;4138783;28;20116;-45
2024/02/01 15:11:46;;;;;;;17.23;3.22;;;15.10;76.60;;;;;;4153217;28;20056;-40
2024/02/01 15:14:29;;;;;;;22.13;4.13;;;15.00;76.50;;;;;;4153953;28;20056;-40
2024/02/01 15:17:12;;;;;;;24.08;4.35;;;15.00;76.50;;;;;;4137710;28;20068;-40
2024/02/01 15:19:54;;;;;;;14.85;3.20;;;14.90;76.40;;;;;;4132622;28;20073;-46
2024/02/01 15:22:36;;;;;;;12.10;3.00;;;14.90;76.30;;;;;;4136973;28;20112;-45
2024/02/01 15:25:17;;;;;;;14.25;2.88;;;14.90;76.20;;;;;;4142748;28;20507;-40
2024/02/01 15:27:59;;;;;;;17.20;3.05;;;14.90;76.50;;;;;;4154288;28;20134;-40
2024/02/01 15:30:47;;;;;;;15.20;3.53;;;14.90;76.60;;;;;;4154447;28;20060;-41
2024/02/01 15:33:28;;;;;;;9.57;2.35;;;14.90;76.90;;;;;;4154182;28;20044;-41
2024/02/01 15:36:10;;;;;;;14.60;3.33;;;14.90;77.10;;;;;;4153874;28;20583;-41
2024/02/01 15:38:52;;;;;;;18.20;3.85;;;14.90;77.50;;;;;;4153912;28;20175;-40
2024/02/01 15:41:33;;;;;;;16.42;3.08;;;14.90;77.70;;;;;;4154026;28;20060;-40
2024/02/01 15:44:14;;;;;;;19.58;3.42;;;14.90;77.80;;;;;;4154208;28;20054;-40
2024/02/01 15:46:56;;;;;;;16.98;3.42;;;14.80;77.90;;;;;;4134205;28;20060;-39
2024/02/01 15:49:39;;;;;;;20.10;3.00;;;14.90;78.20;;;;;;4136686;28;20080;-40
2024/02/01 15:52:20;;;;;;;23.98;4.18;;;14.80;78.30;;;;;;4137682;28;20073;-40
2024/02/01 15:55:02;;;;;;;23.65;3.95;;;14.90;78.50;;;;;;4141931;28;20056;-40
2024/02/01 15:57:43;;;;;;;22.17;3.78;;;14.80;78.30;;;;;;4153905;28;20057;-40
2024/02/01 16:00:24;;;;;;;16.20;3.00;;;14.90;78.10;;;;;;4139737;28;20060;-41
2024/02/01 16:03:06;;;;;;;16.10;3.00;;;14.80;77.90;;;;;;4153583;28;20048;-40
2024/02/01 16:06:09;;;;;;;17.57;3.37;;;14.80;77.80;;;;;;4148451;28;20397;-41
2024/02/01 16:08:53;;;;;;;22.27;4.75;;;14.80;77.40;;;;;;4150823;28;20275;-41
2024/02/01 16:11:38;;;;;;;15.68;3.35;;;14.80;77.80;;;;;;4152564;28;20048;-41
2024/02/01 16:14:20;;;;;;;17.65;3.75;;;14.80;77.70;;;;;;4153022;28;20511;-41
2024/02/01 16:17:02;;;;;;;20.85;3.30;;;14.80;77.50;;;;;;4151059;28;20094;-40
2024/02/01 16:19:43;;;;;;;16.95;2.95;;;14.80;77.30;;;;;;4153908;28;20498;-41
2024/02/01 16:22:45;;;;;;;14.75;2.75;;;14.80;77.20;;;;;;4136292;28;20053;-40